createdAt,value
2017-10-30T00:00:21.419Z,1019.15
2017-10-30T00:01:21.298Z,1019.08
2017-10-30T00:02:21.439Z,1019.08
2017-10-30T00:03:21.246Z,1019.05
2017-10-30T00:04:21.350Z,1019.08
2017-10-30T00:05:21.183Z,1019.12
2017-10-30T00:06:21.256Z,1019.10
2017-10-30T00:07:21.132Z,1019.13
2017-10-30T00:08:21.274Z,1019.14
2017-10-30T00:09:21.069Z,1019.18
2017-10-30T00:10:21.184Z,1019.19
2017-10-30T00:11:21.012Z,1019.26
2017-10-30T00:12:21.096Z,1019.29
2017-10-30T00:13:20.961Z,1019.28
2017-10-30T00:14:21.004Z,1019.28
2017-10-30T00:15:20.904Z,1019.23
2017-10-30T00:16:21.017Z,1019.18
2017-10-30T00:17:20.844Z,1019.20
2017-10-30T00:18:20.929Z,1019.25
2017-10-30T00:19:20.786Z,1019.27
2017-10-30T00:20:20.842Z,1019.29
2017-10-30T00:21:20.722Z,1019.32
2017-10-30T00:22:20.858Z,1019.37
2017-10-30T00:23:20.669Z,1019.30
2017-10-30T00:24:20.770Z,1019.30
2017-10-30T00:25:20.616Z,1019.26
2017-10-30T00:26:20.681Z,1019.32
2017-10-30T00:27:20.555Z,1019.31
2017-10-30T00:28:20.694Z,1019.37
2017-10-30T00:29:20.500Z,1019.33
2017-10-30T00:30:20.606Z,1019.34
2017-10-30T00:31:20.444Z,1019.29
2017-10-30T00:32:20.519Z,1019.27
2017-10-30T00:33:20.398Z,1019.29
2017-10-30T00:34:20.530Z,1019.34
2017-10-30T00:35:20.327Z,1019.36
2017-10-30T00:36:20.443Z,1019.30
2017-10-30T00:37:20.276Z,1019.33
2017-10-30T00:38:20.354Z,1019.29
2017-10-30T00:39:20.215Z,1019.27
2017-10-30T00:40:20.366Z,1019.29
2017-10-30T00:41:20.154Z,1019.23
2017-10-30T00:42:20.277Z,1019.27
2017-10-30T00:43:20.098Z,1019.29
2017-10-30T00:44:20.191Z,1019.31
2017-10-30T00:45:20.039Z,1019.29
2017-10-30T00:46:20.202Z,1019.28
2017-10-30T00:47:20.002Z,1019.28
2017-10-30T00:48:20.113Z,1019.26
2017-10-30T00:49:19.932Z,1019.22
2017-10-30T00:50:20.020Z,1019.25
2017-10-30T00:51:19.869Z,1019.25
2017-10-30T00:52:20.041Z,1019.30
2017-10-30T00:53:19.812Z,1019.33
2017-10-30T00:54:19.952Z,1019.39
2017-10-30T00:55:19.756Z,1019.37
2017-10-30T00:56:19.861Z,1019.44
2017-10-30T00:57:19.703Z,1019.46
2017-10-30T00:58:19.877Z,1019.38
2017-10-30T00:59:19.644Z,1019.40
2017-10-30T01:00:19.787Z,1019.41
2017-10-30T01:01:19.588Z,1019.49
2017-10-30T01:02:19.700Z,1019.44
2017-10-30T01:03:19.525Z,1019.45
2017-10-30T01:04:19.710Z,1019.44
2017-10-30T01:05:19.474Z,1019.42
2017-10-30T01:06:19.622Z,1019.35
2017-10-30T01:07:19.433Z,1019.38
2017-10-30T01:08:19.536Z,1019.36
2017-10-30T01:09:19.357Z,1019.41
2017-10-30T01:10:19.556Z,1019.37
2017-10-30T01:11:19.308Z,1019.39
2017-10-30T01:12:19.469Z,1019.42
2017-10-30T01:13:19.242Z,1019.40
2017-10-30T01:14:19.369Z,1019.40
2017-10-30T01:15:19.193Z,1019.44
2017-10-30T01:16:19.284Z,1019.47
2017-10-30T01:17:19.128Z,1019.48
2017-10-30T01:18:19.294Z,1019.49
2017-10-30T01:19:19.071Z,1019.55
2017-10-30T01:20:19.209Z,1019.55
2017-10-30T01:21:19.026Z,1019.57
2017-10-30T01:22:19.015Z,1019.55
2017-10-30T01:23:18.962Z,1019.55
2017-10-30T01:24:19.030Z,1019.58
2017-10-30T01:25:18.898Z,1019.59
2017-10-30T01:26:18.957Z,1019.60
2017-10-30T01:27:18.847Z,1019.58
2017-10-30T01:28:18.852Z,1019.56
2017-10-30T01:29:18.788Z,1019.51
2017-10-30T01:30:18.871Z,1019.49
2017-10-30T01:31:18.730Z,1019.50
2017-10-30T01:32:18.777Z,1019.51
2017-10-30T01:33:18.683Z,1019.52
2017-10-30T01:34:18.691Z,1019.53
2017-10-30T01:35:18.616Z,1019.49
2017-10-30T01:36:18.706Z,1019.57
2017-10-30T01:37:18.566Z,1019.55
2017-10-30T01:38:18.620Z,1019.54
2017-10-30T01:39:18.501Z,1019.59
2017-10-30T01:40:18.528Z,1019.59
2017-10-30T01:41:18.447Z,1019.56
2017-10-30T01:42:18.542Z,1019.58
2017-10-30T01:43:18.387Z,1019.53
2017-10-30T01:44:18.451Z,1019.58
2017-10-30T01:45:18.332Z,1019.55
2017-10-30T01:46:18.373Z,1019.54
2017-10-30T01:47:18.293Z,1019.46
2017-10-30T01:48:18.378Z,1019.49
2017-10-30T01:49:18.217Z,1019.54
2017-10-30T01:50:18.294Z,1019.50
2017-10-30T01:51:18.160Z,1019.52
2017-10-30T01:52:18.197Z,1019.50
2017-10-30T01:53:18.102Z,1019.60
2017-10-30T01:54:18.214Z,1019.61
2017-10-30T01:55:18.045Z,1019.70
2017-10-30T01:56:18.127Z,1019.65
2017-10-30T01:57:17.988Z,1019.66
2017-10-30T01:58:18.040Z,1019.66
2017-10-30T01:59:17.935Z,1019.65
2017-10-30T02:00:17.946Z,1019.62
2017-10-30T02:01:17.869Z,1019.59
2017-10-30T02:02:17.962Z,1019.61
2017-10-30T02:03:17.831Z,1019.57
2017-10-30T02:04:17.869Z,1019.62
2017-10-30T02:05:17.755Z,1019.61
2017-10-30T02:06:17.788Z,1019.62
2017-10-30T02:07:17.696Z,1019.65
2017-10-30T02:08:17.799Z,1019.63
2017-10-30T02:09:17.638Z,1019.59
2017-10-30T02:10:17.711Z,1019.63
2017-10-30T02:11:17.579Z,1019.55
2017-10-30T02:12:17.622Z,1019.59
2017-10-30T02:13:17.523Z,1019.55
2017-10-30T02:14:17.638Z,1019.57
2017-10-30T02:15:17.466Z,1019.54
2017-10-30T02:16:17.547Z,1019.54
2017-10-30T02:17:17.410Z,1019.52
2017-10-30T02:18:17.459Z,1019.53
2017-10-30T02:19:17.347Z,1019.54
2017-10-30T02:20:17.473Z,1019.56
2017-10-30T02:21:17.291Z,1019.53
2017-10-30T02:22:17.389Z,1019.52
2017-10-30T02:23:17.236Z,1019.56
2017-10-30T02:24:17.295Z,1019.59
2017-10-30T02:25:17.173Z,1019.63
2017-10-30T02:26:17.314Z,1019.57
2017-10-30T02:27:17.117Z,1019.65
2017-10-30T02:28:17.218Z,1019.61
2017-10-30T02:29:31.857Z,1019.66
2017-10-30T02:30:17.135Z,1019.63
2017-10-30T02:31:17.003Z,1019.60
2017-10-30T02:32:17.045Z,1019.61
2017-10-30T02:33:16.942Z,1019.62
2017-10-30T02:34:16.997Z,1019.63
2017-10-30T02:35:16.883Z,1019.60
2017-10-30T02:36:16.971Z,1019.59
2017-10-30T02:37:16.836Z,1019.62
2017-10-30T02:38:16.882Z,1019.66
2017-10-30T02:39:16.772Z,1019.68
2017-10-30T02:40:16.894Z,1019.66
2017-10-30T02:41:16.716Z,1019.70
2017-10-30T02:42:16.806Z,1019.69
2017-10-30T02:43:16.655Z,1019.74
2017-10-30T02:44:16.718Z,1019.78
2017-10-30T02:45:16.592Z,1019.76
2017-10-30T02:46:16.734Z,1019.76
2017-10-30T02:47:16.541Z,1019.74
2017-10-30T02:48:16.641Z,1019.78
2017-10-30T02:49:16.479Z,1019.80
2017-10-30T02:50:16.554Z,1019.78
2017-10-30T02:51:16.424Z,1019.79
2017-10-30T02:52:16.566Z,1019.81
2017-10-30T02:53:16.361Z,1019.80
2017-10-30T02:54:16.479Z,1019.80
2017-10-30T02:55:16.305Z,1019.86
2017-10-30T02:56:16.387Z,1019.87
2017-10-30T02:57:16.242Z,1019.94
2017-10-30T02:58:16.303Z,1019.90
2017-10-30T02:59:16.186Z,1019.87
2017-10-30T03:00:16.315Z,1019.89
2017-10-30T03:01:16.137Z,1019.89
2017-10-30T03:02:16.224Z,1019.94
2017-10-30T03:03:16.067Z,1019.92
2017-10-30T03:04:16.137Z,1019.94
2017-10-30T03:05:16.020Z,1019.94
2017-10-30T03:06:16.149Z,1019.91
2017-10-30T03:07:15.960Z,1019.90
2017-10-30T03:08:16.066Z,1019.95
2017-10-30T03:09:15.897Z,1019.97
2017-10-30T03:10:15.977Z,1019.98
2017-10-30T03:11:15.841Z,1020.02
2017-10-30T03:12:15.992Z,1020.04
2017-10-30T03:13:15.779Z,1019.99
2017-10-30T03:14:15.899Z,1020.01
2017-10-30T03:15:15.720Z,1020.02
2017-10-30T03:16:15.823Z,1020.08
2017-10-30T03:17:15.661Z,1020.03
2017-10-30T03:18:15.831Z,1020.01
2017-10-30T03:19:15.616Z,1020.03
2017-10-30T03:20:15.737Z,1020.06
2017-10-30T03:21:15.559Z,1020.07
2017-10-30T03:22:15.650Z,1020.03
2017-10-30T03:23:15.486Z,1020.03
2017-10-30T03:24:15.660Z,1020.06
2017-10-30T03:25:15.441Z,1020.04
2017-10-30T03:26:15.575Z,1020.05
2017-10-30T03:27:15.380Z,1020.10
2017-10-30T03:28:15.490Z,1020.08
2017-10-30T03:29:15.313Z,1020.10
2017-10-30T03:30:15.398Z,1020.12
2017-10-30T03:31:15.253Z,1020.19
2017-10-30T03:32:15.421Z,1020.20
2017-10-30T03:33:15.194Z,1020.20
2017-10-30T03:34:15.325Z,1020.20
2017-10-30T03:35:15.141Z,1020.19
2017-10-30T03:36:15.249Z,1020.25
2017-10-30T03:37:15.079Z,1020.23
2017-10-30T03:38:15.254Z,1020.24
2017-10-30T03:39:15.025Z,1020.26
2017-10-30T03:40:15.168Z,1020.20
2017-10-30T03:41:14.969Z,1020.22
2017-10-30T03:42:15.084Z,1020.25
2017-10-30T03:43:14.905Z,1020.28
2017-10-30T03:44:15.093Z,1020.28
2017-10-30T03:45:14.862Z,1020.28
2017-10-30T03:46:15.002Z,1020.34
2017-10-30T03:47:14.787Z,1020.36
2017-10-30T03:48:14.809Z,1020.38
2017-10-30T03:49:14.738Z,1020.37
2017-10-30T03:50:14.828Z,1020.40
2017-10-30T03:51:14.673Z,1020.36
2017-10-30T03:52:14.735Z,1020.37
2017-10-30T03:53:14.613Z,1020.39
2017-10-30T03:54:14.642Z,1020.47
2017-10-30T03:55:14.555Z,1020.42
2017-10-30T03:56:14.566Z,1020.44
2017-10-30T03:57:14.497Z,1020.47
2017-10-30T03:58:14.569Z,1020.47
2017-10-30T03:59:14.454Z,1020.43
2017-10-30T04:00:14.479Z,1020.44
2017-10-30T04:01:14.379Z,1020.46
2017-10-30T04:02:14.393Z,1020.53
2017-10-30T04:03:14.323Z,1020.57
2017-10-30T04:04:14.407Z,1020.59
2017-10-30T04:05:14.262Z,1020.54
2017-10-30T04:06:14.321Z,1020.61
2017-10-30T04:07:14.208Z,1020.61
2017-10-30T04:08:14.225Z,1020.65
2017-10-30T04:09:14.148Z,1020.61
2017-10-30T04:10:14.239Z,1020.65
2017-10-30T04:11:14.091Z,1020.67
2017-10-30T04:12:14.152Z,1020.69
2017-10-30T04:13:14.034Z,1020.62
2017-10-30T04:14:14.075Z,1020.64
2017-10-30T04:15:13.989Z,1020.63
2017-10-30T04:16:14.079Z,1020.75
2017-10-30T04:17:13.918Z,1020.74
2017-10-30T04:18:13.993Z,1020.72
2017-10-30T04:19:13.861Z,1020.75
2017-10-30T04:20:13.904Z,1020.72
2017-10-30T04:21:13.801Z,1020.78
2017-10-30T04:22:13.937Z,1020.76
2017-10-30T04:23:13.750Z,1020.73
2017-10-30T04:24:13.829Z,1020.76
2017-10-30T04:25:13.682Z,1020.78
2017-10-30T04:26:13.736Z,1020.76
2017-10-30T04:27:13.626Z,1020.81
2017-10-30T04:28:13.647Z,1020.83
2017-10-30T04:29:13.566Z,1020.76
2017-10-30T04:30:13.663Z,1020.80
2017-10-30T04:31:13.508Z,1020.85
2017-10-30T04:32:13.577Z,1020.84
2017-10-30T04:33:13.455Z,1020.82
2017-10-30T04:34:13.486Z,1020.86
2017-10-30T04:35:13.389Z,1020.85
2017-10-30T04:36:13.514Z,1020.86
2017-10-30T04:37:13.335Z,1020.87
2017-10-30T04:38:13.412Z,1020.98
2017-10-30T04:39:13.278Z,1020.90
2017-10-30T04:40:13.321Z,1020.93
2017-10-30T04:41:13.214Z,1020.91
2017-10-30T04:42:13.335Z,1020.93
2017-10-30T04:43:13.158Z,1020.92
2017-10-30T04:44:13.246Z,1020.92
2017-10-30T04:45:13.101Z,1020.96
2017-10-30T04:46:13.157Z,1020.94
2017-10-30T04:47:13.041Z,1020.91
2017-10-30T04:48:13.174Z,1020.95
2017-10-30T04:49:12.987Z,1020.94
2017-10-30T04:50:13.085Z,1020.95
2017-10-30T04:51:12.921Z,1020.97
2017-10-30T04:52:13.004Z,1020.99
2017-10-30T04:53:12.865Z,1020.95
2017-10-30T04:54:12.909Z,1020.94
2017-10-30T04:55:12.808Z,1020.90
2017-10-30T04:56:12.931Z,1020.97
2017-10-30T04:57:12.764Z,1020.95
2017-10-30T04:58:12.836Z,1020.90
2017-10-30T04:59:12.696Z,1020.95
2017-10-30T05:00:12.745Z,1020.93
2017-10-30T05:01:12.651Z,1020.93
2017-10-30T05:02:12.764Z,1020.98
2017-10-30T05:03:12.582Z,1020.98
2017-10-30T05:04:12.671Z,1021.06
2017-10-30T05:05:12.514Z,1021.02
2017-10-30T05:06:12.581Z,1020.98
2017-10-30T05:07:12.459Z,1021.02
2017-10-30T05:08:12.596Z,1021.05
2017-10-30T05:09:12.397Z,1020.99
2017-10-30T05:10:12.510Z,1020.97
2017-10-30T05:11:12.337Z,1021.00
2017-10-30T05:12:12.418Z,1021.01
2017-10-30T05:13:12.284Z,1021.05
2017-10-30T05:14:12.436Z,1021.00
2017-10-30T05:15:12.222Z,1020.97
2017-10-30T05:16:12.343Z,1021.02
2017-10-30T05:17:12.165Z,1021.00
2017-10-30T05:18:12.257Z,1020.99
2017-10-30T05:19:12.105Z,1021.02
2017-10-30T05:20:12.168Z,1021.01
2017-10-30T05:21:12.051Z,1021.03
2017-10-30T05:22:12.182Z,1021.03
2017-10-30T05:23:11.985Z,1021.03
2017-10-30T05:24:12.094Z,1020.98
2017-10-30T05:25:11.924Z,1021.07
2017-10-30T05:26:12.004Z,1021.05
2017-10-30T05:27:11.878Z,1021.01
2017-10-30T05:28:12.019Z,1021.02
2017-10-30T05:29:11.814Z,1021.06
2017-10-30T05:30:11.930Z,1021.11
2017-10-30T05:31:11.770Z,1021.10
2017-10-30T05:32:11.839Z,1021.11
2017-10-30T05:33:11.692Z,1021.11
2017-10-30T05:34:11.856Z,1021.18
2017-10-30T05:35:11.676Z,1021.17
2017-10-30T05:36:11.768Z,1021.15
2017-10-30T05:37:11.584Z,1021.19
2017-10-30T05:38:11.677Z,1021.13
2017-10-30T05:39:11.517Z,1021.22
2017-10-30T05:40:11.598Z,1021.23
2017-10-30T05:41:11.455Z,1021.30
2017-10-30T05:42:11.603Z,1021.27
2017-10-30T05:43:11.408Z,1021.24
2017-10-30T05:44:11.521Z,1021.24
2017-10-30T05:45:11.339Z,1021.23
2017-10-30T05:46:11.425Z,1021.26
2017-10-30T05:47:11.280Z,1021.30
2017-10-30T05:48:11.436Z,1021.26
2017-10-30T05:49:11.221Z,1021.26
2017-10-30T05:50:11.353Z,1021.30
2017-10-30T05:51:11.161Z,1021.29
2017-10-30T05:52:11.265Z,1021.26
2017-10-30T05:53:11.100Z,1021.31
2017-10-30T05:54:11.273Z,1021.27
2017-10-30T05:55:11.044Z,1021.38
2017-10-30T05:56:11.200Z,1021.39
2017-10-30T05:57:10.987Z,1021.33
2017-10-30T05:58:11.099Z,1021.44
2017-10-30T05:59:10.922Z,1021.43
2017-10-30T06:00:11.111Z,1021.39
2017-10-30T06:01:10.878Z,1021.52
2017-10-30T06:02:11.025Z,1021.41
2017-10-30T06:03:10.808Z,1021.37
2017-10-30T06:04:10.935Z,1021.42
2017-10-30T06:05:10.755Z,1021.47
2017-10-30T06:06:10.859Z,1021.41
2017-10-30T06:07:10.689Z,1021.39
2017-10-30T06:08:10.858Z,1021.52
2017-10-30T06:09:10.637Z,1021.47
2017-10-30T06:10:10.775Z,1021.53
2017-10-30T06:11:10.577Z,1021.44
2017-10-30T06:12:10.682Z,1021.53
2017-10-30T06:13:10.519Z,1021.57
2017-10-30T06:14:10.595Z,1021.53
2017-10-30T06:15:10.452Z,1021.57
2017-10-30T06:16:10.514Z,1021.54
2017-10-30T06:17:10.395Z,1021.57
2017-10-30T06:18:10.418Z,1021.60
2017-10-30T06:19:10.342Z,1021.57
2017-10-30T06:20:10.446Z,1021.57
2017-10-30T06:21:10.276Z,1021.62
2017-10-30T06:22:10.345Z,1021.58
2017-10-30T06:23:10.216Z,1021.57
2017-10-30T06:24:10.258Z,1021.57
2017-10-30T06:25:10.161Z,1021.51
2017-10-30T06:26:10.166Z,1021.54
2017-10-30T06:27:10.099Z,1021.53
2017-10-30T06:28:10.184Z,1021.48
2017-10-30T06:29:10.044Z,1021.58
2017-10-30T06:30:10.092Z,1021.58
2017-10-30T06:31:09.978Z,1021.55
2017-10-30T06:32:10.012Z,1021.54
2017-10-30T06:33:09.924Z,1021.59
2017-10-30T06:34:10.022Z,1021.61
2017-10-30T06:35:09.866Z,1021.59
2017-10-30T06:36:09.933Z,1021.60
2017-10-30T06:37:09.811Z,1021.62
2017-10-30T06:38:09.845Z,1021.65
2017-10-30T06:39:09.746Z,1021.65
2017-10-30T06:40:09.853Z,1021.71
2017-10-30T06:41:09.691Z,1021.68
2017-10-30T06:42:09.766Z,1021.71
2017-10-30T06:43:09.635Z,1021.71
2017-10-30T06:44:09.684Z,1021.77
2017-10-30T06:45:09.569Z,1021.74
2017-10-30T06:46:09.590Z,1021.73
2017-10-30T06:47:09.514Z,1021.78
2017-10-30T06:48:09.605Z,1021.81
2017-10-30T06:49:09.458Z,1021.83
2017-10-30T06:50:09.516Z,1021.74
2017-10-30T06:51:09.417Z,1021.79
2017-10-30T06:52:09.429Z,1021.80
2017-10-30T06:53:09.337Z,1021.81
2017-10-30T06:54:09.456Z,1021.82
2017-10-30T06:55:09.274Z,1021.87
2017-10-30T06:56:09.355Z,1021.85
2017-10-30T06:57:09.220Z,1021.88
2017-10-30T06:58:09.274Z,1021.90
2017-10-30T06:59:09.159Z,1022.00
2017-10-30T07:00:09.282Z,1021.96
2017-10-30T07:01:09.098Z,1021.98
2017-10-30T07:02:09.202Z,1022.02
2017-10-30T07:03:09.055Z,1021.96
2017-10-30T07:04:09.122Z,1022.01
2017-10-30T07:05:08.981Z,1022.03
2017-10-30T07:06:09.014Z,1022.06
2017-10-30T07:07:08.924Z,1022.14
2017-10-30T07:08:09.034Z,1022.09
2017-10-30T07:09:08.862Z,1022.13
2017-10-30T07:10:08.948Z,1022.18
2017-10-30T07:11:08.804Z,1022.18
2017-10-30T07:12:08.852Z,1022.17
2017-10-30T07:13:08.760Z,1022.20
2017-10-30T07:14:08.872Z,1022.18
2017-10-30T07:15:08.693Z,1022.21
2017-10-30T07:16:08.775Z,1022.19
2017-10-30T07:17:08.624Z,1022.19
2017-10-30T07:18:08.695Z,1022.21
2017-10-30T07:19:08.574Z,1022.23
2017-10-30T07:20:08.700Z,1022.27
2017-10-30T07:21:08.511Z,1022.30
2017-10-30T07:22:08.633Z,1022.33
2017-10-30T07:23:08.455Z,1022.35
2017-10-30T07:24:08.531Z,1022.39
2017-10-30T07:25:08.392Z,1022.41
2017-10-30T07:26:08.543Z,1022.39
2017-10-30T07:27:08.337Z,1022.45
2017-10-30T07:28:08.448Z,1022.41
2017-10-30T07:29:08.299Z,1022.44
2017-10-30T07:30:08.367Z,1022.47
2017-10-30T07:31:08.223Z,1022.42
2017-10-30T07:32:08.288Z,1022.46
2017-10-30T07:33:08.162Z,1022.46
2017-10-30T07:34:08.290Z,1022.49
2017-10-30T07:35:08.103Z,1022.50
2017-10-30T07:36:08.200Z,1022.55
2017-10-30T07:37:08.039Z,1022.58
2017-10-30T07:38:08.111Z,1022.59
2017-10-30T07:39:07.983Z,1022.59
2017-10-30T07:40:08.126Z,1022.65
2017-10-30T07:41:07.927Z,1022.69
2017-10-30T07:42:08.036Z,1022.68
2017-10-30T07:43:07.862Z,1022.68
2017-10-30T07:44:07.947Z,1022.78
2017-10-30T07:45:07.811Z,1022.71
2017-10-30T07:46:07.882Z,1022.73
2017-10-30T07:47:07.750Z,1022.71
2017-10-30T07:48:07.875Z,1022.71
2017-10-30T07:49:07.687Z,1022.71
2017-10-30T07:50:07.782Z,1022.72
2017-10-30T07:51:07.637Z,1022.70
2017-10-30T07:52:07.797Z,1022.71
2017-10-30T07:53:07.574Z,1022.67
2017-10-30T07:54:07.708Z,1022.69
2017-10-30T07:55:07.514Z,1022.73
2017-10-30T07:56:07.621Z,1022.78
2017-10-30T07:57:07.458Z,1022.81
2017-10-30T07:58:07.533Z,1022.83
2017-10-30T07:59:07.400Z,1022.82
2017-10-30T08:00:07.549Z,1022.83
2017-10-30T08:01:07.345Z,1022.85
2017-10-30T08:02:07.458Z,1022.83
2017-10-30T08:03:07.281Z,1022.85
2017-10-30T08:04:07.365Z,1022.84
2017-10-30T08:05:07.238Z,1022.84
2017-10-30T08:06:07.380Z,1022.83
2017-10-30T08:07:07.172Z,1022.87
2017-10-30T08:08:07.293Z,1022.88
2017-10-30T08:09:07.109Z,1022.86
2017-10-30T08:10:07.204Z,1022.87
2017-10-30T08:11:07.051Z,1022.87
2017-10-30T08:12:07.213Z,1022.90
2017-10-30T08:13:06.996Z,1022.91
2017-10-30T08:14:06.969Z,1022.92
2017-10-30T08:15:06.936Z,1022.90
2017-10-30T08:16:06.947Z,1022.90
2017-10-30T08:17:06.882Z,1022.90
2017-10-30T08:18:06.954Z,1022.91
2017-10-30T08:19:06.821Z,1022.90
2017-10-30T08:20:06.865Z,1022.93
2017-10-30T08:21:06.768Z,1022.95
2017-10-30T08:22:06.776Z,1022.94
2017-10-30T08:23:06.717Z,1022.95
2017-10-30T08:24:06.788Z,1023.00
2017-10-30T08:25:06.653Z,1022.97
2017-10-30T08:26:06.700Z,1022.95
2017-10-30T08:27:06.609Z,1022.95
2017-10-30T08:28:06.611Z,1022.97
2017-10-30T08:29:06.539Z,1022.94
2017-10-30T08:30:06.624Z,1022.95
2017-10-30T08:31:06.477Z,1022.98
2017-10-30T08:32:06.535Z,1023.00
2017-10-30T08:33:06.421Z,1022.97
2017-10-30T08:34:06.584Z,1022.99
2017-10-30T08:35:06.368Z,1022.98
2017-10-30T08:36:06.450Z,1023.06
2017-10-30T08:37:06.308Z,1023.04
2017-10-30T08:38:06.363Z,1023.07
2017-10-30T08:39:06.259Z,1023.05
2017-10-30T08:40:06.270Z,1023.06
2017-10-30T08:41:06.197Z,1023.03
2017-10-30T08:42:07.210Z,1023.06
2017-10-30T08:43:06.150Z,1023.03
2017-10-30T08:44:06.197Z,1023.04
2017-10-30T08:45:06.086Z,1023.05
2017-10-30T08:46:06.106Z,1023.06
2017-10-30T08:47:06.028Z,1023.11
2017-10-30T08:48:06.016Z,1023.09
2017-10-30T08:49:05.981Z,1023.14
2017-10-30T08:50:06.031Z,1023.11
2017-10-30T08:51:05.925Z,1023.15
2017-10-30T08:52:05.945Z,1023.15
2017-10-30T08:53:05.870Z,1023.16
2017-10-30T08:54:05.853Z,1023.11
2017-10-30T08:55:05.812Z,1023.16
2017-10-30T08:56:05.857Z,1023.08
2017-10-30T08:57:05.753Z,1023.13
2017-10-30T08:58:05.768Z,1023.16
2017-10-30T08:59:05.693Z,1023.18
2017-10-30T09:00:05.685Z,1023.13
2017-10-30T09:01:05.641Z,1023.15
2017-10-30T09:02:05.699Z,1023.19
2017-10-30T09:03:05.586Z,1023.28
2017-10-30T09:04:05.604Z,1023.55
2017-10-30T09:05:05.534Z,1023.62
2017-10-30T09:06:05.516Z,1023.66
2017-10-30T09:07:05.487Z,1023.75
2017-10-30T09:08:05.528Z,1023.74
2017-10-30T09:09:05.435Z,1023.73
2017-10-30T09:10:05.439Z,1023.75
2017-10-30T09:11:05.376Z,1023.78
2017-10-30T09:12:05.479Z,1023.83
2017-10-30T09:13:05.323Z,1023.83
2017-10-30T09:14:05.387Z,1023.84
2017-10-30T09:15:05.288Z,1023.88
2017-10-30T09:16:05.300Z,1023.89
2017-10-30T09:17:05.239Z,1023.92
2017-10-30T09:18:05.314Z,1023.88
2017-10-30T09:19:05.192Z,1023.94
2017-10-30T09:20:05.228Z,1023.97
2017-10-30T09:21:05.163Z,1023.92
2017-10-30T09:22:05.241Z,1023.97
2017-10-30T09:23:05.107Z,1023.97
2017-10-30T09:24:05.148Z,1023.92
2017-10-30T09:25:05.072Z,1023.95
2017-10-30T09:26:05.165Z,1023.94
2017-10-30T09:27:05.033Z,1023.89
2017-10-30T09:28:05.075Z,1023.98
2017-10-30T09:29:04.994Z,1023.96
2017-10-30T09:30:05.089Z,1023.96
2017-10-30T09:31:04.960Z,1023.98
2017-10-30T09:32:04.997Z,1024.08
2017-10-30T09:33:04.926Z,1024.08
2017-10-30T09:34:05.020Z,1024.11
2017-10-30T09:35:04.889Z,1024.11
2017-10-30T09:36:05.052Z,1024.10
2017-10-30T09:37:04.915Z,1024.07
2017-10-30T09:38:04.936Z,1024.14
2017-10-30T09:39:04.826Z,1024.11
2017-10-30T09:40:04.958Z,1024.07
2017-10-30T09:41:04.808Z,1024.15
2017-10-30T09:42:04.862Z,1024.32
2017-10-30T09:43:04.777Z,1024.55
2017-10-30T09:44:04.883Z,1024.62
2017-10-30T09:45:04.738Z,1024.48
2017-10-30T09:46:04.790Z,1024.41
2017-10-30T09:47:04.707Z,1024.47
2017-10-30T09:48:04.801Z,1024.51
2017-10-30T09:49:04.683Z,1024.55
2017-10-30T09:50:04.815Z,1024.59
2017-10-30T09:51:04.652Z,1024.60
2017-10-30T09:52:04.730Z,1024.61
2017-10-30T09:53:04.637Z,1024.71
2017-10-30T09:54:04.744Z,1024.67
2017-10-30T09:55:04.614Z,1024.66
2017-10-30T09:56:04.655Z,1024.66
2017-10-30T09:57:04.567Z,1024.69
2017-10-30T09:58:04.665Z,1024.71
2017-10-30T09:59:04.547Z,1024.69
2017-10-30T10:00:04.683Z,1024.73
2017-10-30T10:01:04.523Z,1024.75
2017-10-30T10:02:04.595Z,1024.76
2017-10-30T10:03:04.490Z,1024.81
2017-10-30T10:04:04.608Z,1024.83
2017-10-30T10:05:04.471Z,1024.86
2017-10-30T10:06:04.621Z,1024.86
2017-10-30T10:07:04.453Z,1024.91
2017-10-30T10:08:04.537Z,1024.96
2017-10-30T10:09:04.426Z,1024.98
2017-10-30T10:10:04.547Z,1024.99
2017-10-30T10:11:04.399Z,1024.97
2017-10-30T10:12:04.560Z,1025.00
2017-10-30T10:13:04.372Z,1025.04
2017-10-30T10:14:04.473Z,1025.07
2017-10-30T10:15:04.349Z,1025.09
2017-10-30T10:16:04.494Z,1025.15
2017-10-30T10:17:04.349Z,1025.16
2017-10-30T10:18:04.508Z,1025.16
2017-10-30T10:19:04.309Z,1025.14
2017-10-30T10:20:04.418Z,1025.19
2017-10-30T10:21:04.283Z,1025.16
2017-10-30T10:22:04.426Z,1025.23
2017-10-30T10:23:04.261Z,1025.23
2017-10-30T10:24:04.439Z,1025.21
2017-10-30T10:25:04.243Z,1025.17
2017-10-30T10:26:04.273Z,1025.19
2017-10-30T10:27:04.219Z,1025.20
2017-10-30T10:28:04.269Z,1025.23
2017-10-30T10:29:04.201Z,1025.26
2017-10-30T10:30:04.277Z,1025.26
2017-10-30T10:31:04.175Z,1025.32
2017-10-30T10:32:04.167Z,1025.41
2017-10-30T10:33:04.196Z,1025.37
2017-10-30T10:34:04.145Z,1025.31
2017-10-30T10:35:04.208Z,1025.29
2017-10-30T10:36:04.127Z,1025.29
2017-10-30T10:37:04.224Z,1025.27
2017-10-30T10:38:04.105Z,1025.30
2017-10-30T10:39:04.140Z,1025.32
2017-10-30T10:40:04.088Z,1025.33
2017-10-30T10:41:04.148Z,1025.36
2017-10-30T10:42:04.072Z,1025.35
2017-10-30T10:43:04.161Z,1025.40
2017-10-30T10:44:04.049Z,1025.38
2017-10-30T10:45:04.073Z,1025.42
2017-10-30T10:46:04.029Z,1025.44
2017-10-30T10:47:04.088Z,1025.48
2017-10-30T10:48:04.013Z,1025.48
2017-10-30T10:49:04.106Z,1024.88
2017-10-30T10:50:03.993Z,1025.49
2017-10-30T10:51:04.011Z,1024.45
2017-10-30T10:52:03.979Z,1025.54
2017-10-30T10:53:04.027Z,1025.47
2017-10-30T10:54:03.954Z,1025.44
2017-10-30T10:55:04.050Z,1025.48
2017-10-30T10:56:03.937Z,1025.51
2017-10-30T10:57:03.950Z,1025.45
2017-10-30T10:58:03.930Z,1024.34
2017-10-30T10:59:04.069Z,1024.32
2017-10-30T11:00:03.899Z,1025.30
2017-10-30T11:01:03.978Z,1024.75
2017-10-30T11:02:03.882Z,1025.29
2017-10-30T11:03:03.891Z,1025.28
2017-10-30T11:04:03.871Z,1024.90
2017-10-30T11:05:03.851Z,1025.46
2017-10-30T11:06:03.842Z,1025.51
2017-10-30T11:07:04.020Z,1025.54
2017-10-30T11:08:03.821Z,1025.53
2017-10-30T11:09:04.036Z,1025.27
2017-10-30T11:10:03.810Z,1025.45
2017-10-30T11:11:03.793Z,1025.33
2017-10-30T11:12:03.849Z,1025.48
2017-10-30T11:13:03.780Z,1025.37
2017-10-30T11:14:03.862Z,1024.49
2017-10-30T11:15:03.748Z,1025.51
2017-10-30T11:16:03.773Z,1025.49
2017-10-30T11:17:03.732Z,1025.12
2017-10-30T11:18:03.791Z,1025.45
2017-10-30T11:19:03.711Z,1025.51
2017-10-30T11:20:03.813Z,1024.68
2017-10-30T11:21:03.689Z,1024.22
2017-10-30T11:22:03.733Z,1024.22
2017-10-30T11:23:03.669Z,1025.25
2017-10-30T11:24:03.729Z,1024.41
2017-10-30T11:25:03.653Z,1025.04
2017-10-30T11:26:03.741Z,1025.04
2017-10-30T11:27:03.625Z,1024.42
2017-10-30T11:28:03.653Z,1024.27
2017-10-30T11:29:03.604Z,1024.27
2017-10-30T11:30:03.684Z,1024.32
2017-10-30T11:31:03.583Z,1024.51
2017-10-30T11:32:03.583Z,1024.27
2017-10-30T11:33:03.554Z,1024.39
2017-10-30T11:34:03.594Z,1025.44
2017-10-30T11:35:03.551Z,1025.50
2017-10-30T11:36:03.614Z,1025.55
2017-10-30T11:37:03.497Z,1025.57
2017-10-30T11:38:03.518Z,1024.70
2017-10-30T11:39:03.469Z,1024.26
2017-10-30T11:40:03.540Z,1024.25
2017-10-30T11:41:03.445Z,1024.18
2017-10-30T11:42:03.441Z,1024.19
2017-10-30T11:43:03.428Z,1024.28
2017-10-30T11:44:03.456Z,1024.44
2017-10-30T11:45:03.391Z,1024.29
2017-10-30T11:46:03.477Z,1024.38
2017-10-30T11:47:03.355Z,1025.98
2017-10-30T11:48:03.380Z,1025.99
2017-10-30T11:49:03.329Z,1026.22
2017-10-30T11:50:03.396Z,1026.26
2017-10-30T11:51:03.294Z,1026.39
2017-10-30T11:52:03.309Z,1026.46
2017-10-30T11:53:03.267Z,1026.59
2017-10-30T11:54:03.319Z,1026.72
2017-10-30T11:55:03.241Z,1026.87
2017-10-30T11:56:03.331Z,1026.87
2017-10-30T11:57:03.218Z,1026.95
2017-10-30T11:58:03.243Z,1026.46
2017-10-30T11:59:03.179Z,1027.16
2017-10-30T12:00:03.259Z,1027.19
2017-10-30T12:01:03.151Z,1027.04
2017-10-30T12:02:03.176Z,1026.65
2017-10-30T12:03:03.128Z,1024.44
2017-10-30T12:04:03.182Z,1024.37
2017-10-30T12:05:03.103Z,1024.34